createdAt,value
2023-01-29T00:02:11.141Z,101037.84
2023-01-29T00:04:38.063Z,101033.50
2023-01-29T00:07:04.948Z,101035.22
2023-01-29T00:09:32.419Z,101037.97
2023-01-29T00:11:59.289Z,101043.72
2023-01-29T00:14:27.806Z,101034.91
2023-01-29T00:16:55.124Z,101037.88
2023-01-29T00:19:22.082Z,101036.88
2023-01-29T00:21:48.964Z,101043.44
2023-01-29T00:24:18.426Z,101035.50
2023-01-29T00:26:45.903Z,101048.75
2023-01-29T00:29:12.957Z,101043.31
2023-01-29T00:31:39.973Z,101042.06
2023-01-29T00:34:07.367Z,101045.28
2023-01-29T00:36:34.255Z,101049.44
2023-01-29T00:39:03.657Z,101050.28
2023-01-29T00:41:50.996Z,101049.75
2023-01-29T00:44:37.528Z,101058.00
2023-01-29T00:47:05.077Z,101058.00
2023-01-29T00:49:45.066Z,101048.78
2023-01-29T00:52:27.115Z,101056.19
2023-01-29T00:55:01.987Z,101053.09
2023-01-29T00:57:31.677Z,101065.25
2023-01-29T00:59:58.631Z,101048.63
2023-01-29T01:02:44.626Z,101050.03
2023-01-29T01:05:19.369Z,101066.22
2023-01-29T01:07:48.679Z,101063.44
2023-01-29T01:10:25.096Z,101055.19
2023-01-29T01:12:54.764Z,101062.00
2023-01-29T01:15:23.598Z,101064.25
2023-01-29T01:18:00.987Z,101064.13
2023-01-29T01:20:34.066Z,101060.66
2023-01-29T01:23:01.006Z,101058.13
2023-01-29T01:25:28.325Z,101061.63
2023-01-29T01:27:57.170Z,101054.06
2023-01-29T01:30:25.555Z,101063.28
2023-01-29T01:32:53.303Z,101068.59
2023-01-29T01:35:20.215Z,101065.78
2023-01-29T01:37:47.169Z,101064.81
2023-01-29T01:40:19.203Z,101069.16
2023-01-29T01:42:57.280Z,101073.91
2023-01-29T01:45:31.574Z,101074.03
2023-01-29T01:48:15.632Z,101069.28
2023-01-29T01:50:49.841Z,101067.31
2023-01-29T01:53:22.683Z,101066.91
2023-01-29T01:55:55.426Z,101057.38
2023-01-29T01:58:27.319Z,101068.16
2023-01-29T02:00:55.575Z,101069.94
2023-01-29T02:03:43.139Z,101068.72
2023-01-29T02:06:30.058Z,101068.44
2023-01-29T02:09:28.704Z,101079.63
2023-01-29T02:11:56.236Z,101083.94
2023-01-29T02:14:23.663Z,101080.72
2023-01-29T02:16:50.625Z,101080.72
2023-01-29T02:19:44.236Z,101080.44
2023-01-29T02:22:29.710Z,101086.06
2023-01-29T02:25:10.046Z,101086.91
2023-01-29T02:27:36.890Z,101095.53
2023-01-29T02:30:09.569Z,101105.31
2023-01-29T02:32:54.880Z,101094.03
2023-01-29T02:35:42.759Z,101090.38
2023-01-29T02:38:42.490Z,101093.31
2023-01-29T02:41:26.788Z,101085.47
2023-01-29T02:44:03.788Z,101095.38
2023-01-29T02:46:46.658Z,101092.16
2023-01-29T02:49:27.881Z,101097.59
2023-01-29T02:52:01.949Z,101098.63
2023-01-29T02:54:42.862Z,101097.78
2023-01-29T02:57:24.658Z,101103.22
2023-01-29T02:59:59.871Z,101104.44
2023-01-29T03:02:43.070Z,101107.09
2023-01-29T03:05:17.685Z,101106.44
2023-01-29T03:07:54.133Z,101110.59
2023-01-29T03:10:47.876Z,101113.94
2023-01-29T03:13:56.898Z,101113.25
2023-01-29T03:16:31.319Z,101117.03
2023-01-29T03:19:17.455Z,101118.59
2023-01-29T03:21:59.785Z,101122.75
2023-01-29T03:25:05.315Z,101111.53
2023-01-29T03:27:57.328Z,101120.50
2023-01-29T03:30:47.397Z,101127.63
2023-01-29T03:33:58.481Z,101122.72
2023-01-29T03:36:39.976Z,101118.78
2023-01-29T03:39:09.658Z,101122.13
2023-01-29T03:41:43.076Z,101126.19
2023-01-29T03:44:20.520Z,101121.88
2023-01-29T03:46:56.731Z,101128.56
2023-01-29T03:49:39.297Z,101132.31
2023-01-29T03:52:10.559Z,101128.84
2023-01-29T03:54:49.549Z,101126.78
2023-01-29T03:57:36.524Z,101123.22
2023-01-29T04:00:17.309Z,101128.09
2023-01-29T04:03:23.305Z,101127.38
2023-01-29T04:06:13.087Z,101131.66
2023-01-29T04:09:22.238Z,101131.81
2023-01-29T04:11:55.807Z,101126.31
2023-01-29T04:14:23.696Z,101123.66
2023-01-29T04:16:57.722Z,101124.97
2023-01-29T04:19:36.588Z,101122.00
2023-01-29T04:22:19.943Z,101112.81
2023-01-29T04:24:48.332Z,101119.25
2023-01-29T04:27:15.324Z,101115.63
2023-01-29T04:29:51.102Z,101121.47
2023-01-29T04:32:32.291Z,101117.84
2023-01-29T04:35:05.112Z,101126.06
2023-01-29T04:37:50.678Z,101122.97
2023-01-29T04:40:27.255Z,101111.97
2023-01-29T04:43:05.386Z,101120.56
2023-01-29T04:45:50.653Z,101124.53
2023-01-29T04:48:43.401Z,101122.97
2023-01-29T04:51:20.077Z,101120.56
2023-01-29T04:54:02.781Z,101124.22
2023-01-29T04:57:08.620Z,101123.38
2023-01-29T05:00:18.411Z,101127.28
2023-01-29T05:02:46.478Z,101126.19
2023-01-29T05:05:16.736Z,101127.69
2023-01-29T05:07:44.357Z,101126.53
2023-01-29T05:10:13.651Z,101123.19
2023-01-29T05:12:43.938Z,101135.09
2023-01-29T05:15:16.357Z,101132.72
2023-01-29T05:17:43.452Z,101128.94
2023-01-29T05:20:12.014Z,101131.44
2023-01-29T05:22:41.747Z,101143.03
2023-01-29T05:25:31.206Z,101133.44
2023-01-29T05:28:16.704Z,101140.13
2023-01-29T05:30:51.539Z,101138.56
2023-01-29T05:33:29.927Z,101144.00
2023-01-29T05:35:59.610Z,101144.28
2023-01-29T05:38:26.525Z,101150.41
2023-01-29T05:40:54.496Z,101148.19
2023-01-29T05:43:24.222Z,101152.63
2023-01-29T05:45:59.079Z,101153.50
2023-01-29T05:48:28.983Z,101159.69
2023-01-29T05:51:05.500Z,101163.16
2023-01-29T05:53:33.509Z,101158.97
2023-01-29T05:56:04.965Z,101164.97
2023-01-29T05:58:36.557Z,101164.13
2023-01-29T06:01:14.700Z,101164.88
2023-01-29T06:03:41.735Z,101166.00
2023-01-29T06:06:11.703Z,101178.53
2023-01-29T06:08:39.217Z,101176.44
2023-01-29T06:11:08.489Z,101189.53
2023-01-29T06:13:36.089Z,101182.03
2023-01-29T06:16:12.977Z,101178.31
2023-01-29T06:18:41.127Z,101181.34
2023-01-29T06:21:11.309Z,101188.09
2023-01-29T06:23:38.879Z,101176.09
2023-01-29T06:26:08.671Z,101183.72
2023-01-29T06:29:03.356Z,101186.25
2023-01-29T06:31:39.459Z,101189.53
2023-01-29T06:34:09.480Z,101198.03
2023-01-29T06:36:39.851Z,101201.97
2023-01-29T06:39:06.913Z,101197.78
2023-01-29T06:41:34.662Z,101199.66
2023-01-29T06:44:01.648Z,101195.00
2023-01-29T06:46:41.423Z,101201.91
2023-01-29T06:49:08.968Z,101210.59
2023-01-29T06:51:35.995Z,101205.00
2023-01-29T06:54:03.929Z,101211.88
2023-01-29T06:56:30.786Z,101220.53
2023-01-29T06:58:57.808Z,101220.88
2023-01-29T07:01:35.744Z,101230.94
2023-01-29T07:04:03.513Z,101228.88
2023-01-29T07:06:31.539Z,101228.56
2023-01-29T07:08:58.661Z,101221.44
2023-01-29T07:11:25.808Z,101229.28
2023-01-29T07:13:52.754Z,101223.06
2023-01-29T07:16:19.686Z,101229.78
2023-01-29T07:18:46.675Z,101229.53
2023-01-29T07:21:15.890Z,101230.38
2023-01-29T07:23:42.833Z,101226.88
2023-01-29T07:26:11.267Z,101236.25
2023-01-29T07:28:39.705Z,101235.03
2023-01-29T07:31:07.667Z,101228.28
2023-01-29T07:33:35.001Z,101241.22
2023-01-29T07:36:02.075Z,101243.97
2023-01-29T07:38:28.990Z,101237.16
2023-01-29T07:40:55.819Z,101243.50
2023-01-29T07:43:29.004Z,101232.44
2023-01-29T07:45:55.985Z,101238.00
2023-01-29T07:48:23.824Z,101238.25
2023-01-29T07:50:57.519Z,101245.88
2023-01-29T07:53:24.541Z,101237.69
2023-01-29T07:55:51.567Z,101243.03
2023-01-29T07:58:18.616Z,101239.72
2023-01-29T08:00:46.181Z,101239.44
2023-01-29T08:03:16.395Z,101245.75
2023-01-29T08:05:44.255Z,101242.72
2023-01-29T08:08:11.738Z,101240.84
2023-01-29T08:10:41.955Z,101241.59
2023-01-29T08:13:09.278Z,101248.31
2023-01-29T08:15:38.763Z,101256.94
2023-01-29T08:18:06.783Z,101255.72
2023-01-29T08:20:33.914Z,101247.34
2023-01-29T08:23:12.590Z,101255.22
2023-01-29T08:25:39.729Z,101249.03
2023-01-29T08:28:06.807Z,101250.13
2023-01-29T08:30:35.113Z,101246.53
2023-01-29T08:33:04.496Z,101237.84
2023-01-29T08:35:31.939Z,101264.44
2023-01-29T08:38:01.114Z,101247.41
2023-01-29T08:40:31.907Z,101250.09
2023-01-29T08:43:04.086Z,101250.69
2023-01-29T08:45:35.143Z,101246.59
2023-01-29T08:48:02.826Z,101246.28
2023-01-29T08:50:34.661Z,101246.28
2023-01-29T08:53:04.210Z,101243.09
2023-01-29T08:55:31.192Z,101247.06
2023-01-29T08:57:58.077Z,101245.59
2023-01-29T09:00:25.166Z,101245.03
2023-01-29T09:02:52.067Z,101238.88
2023-01-29T09:05:19.346Z,101242.09
2023-01-29T09:07:46.637Z,101242.69
2023-01-29T09:10:13.665Z,101243.94
2023-01-29T09:12:40.503Z,101255.53
2023-01-29T09:15:07.947Z,101247.84
2023-01-29T09:17:37.838Z,101245.47
2023-01-29T09:20:08.987Z,101246.72
2023-01-29T09:22:36.324Z,101234.28
2023-01-29T09:25:04.155Z,101226.03
2023-01-29T09:27:31.071Z,101234.97
2023-01-29T09:29:57.937Z,101231.63
2023-01-29T09:32:52.164Z,101233.84
2023-01-29T09:35:11.807Z,101222.66
2023-01-29T09:37:38.611Z,101224.31
2023-01-29T09:40:06.085Z,101225.59
2023-01-29T09:42:44.104Z,101215.22
2023-01-29T09:45:26.853Z,101216.09
2023-01-29T09:47:58.187Z,101217.06
2023-01-29T09:50:35.409Z,101205.31
2023-01-29T09:53:17.884Z,101206.41
2023-01-29T09:55:58.682Z,101208.53
2023-01-29T09:58:33.977Z,101209.78
2023-01-29T10:01:15.435Z,101205.44
2023-01-29T10:03:58.708Z,101201.91
2023-01-29T10:06:31.313Z,101207.53
2023-01-29T10:09:19.477Z,101203.25
2023-01-29T10:12:20.660Z,101203.84
2023-01-29T10:15:15.486Z,101210.19
2023-01-29T10:17:42.842Z,101212.16
2023-01-29T10:20:28.008Z,101212.88
2023-01-29T10:23:02.787Z,101217.34
2023-01-29T10:25:33.557Z,101227.84
2023-01-29T10:28:02.583Z,101218.72
2023-01-29T10:30:34.760Z,101226.28
2023-01-29T10:33:07.383Z,101214.00
2023-01-29T10:35:44.613Z,101230.34
2023-01-29T10:38:38.726Z,101209.22
2023-01-29T10:41:27.374Z,101212.88
2023-01-29T10:44:03.813Z,101202.63
2023-01-29T10:46:37.383Z,101198.56
2023-01-29T10:49:29.954Z,101198.03
2023-01-29T10:52:11.418Z,101199.69
2023-01-29T10:54:55.548Z,101199.28
2023-01-29T10:57:40.862Z,101194.13
2023-01-29T11:00:22.280Z,101192.41
2023-01-29T11:02:51.416Z,101183.03
2023-01-29T11:05:34.198Z,101183.91
2023-01-29T11:08:10.659Z,101182.38
2023-01-29T11:10:46.666Z,101188.34
2023-01-29T11:13:16.501Z,101179.53
2023-01-29T11:15:46.574Z,101178.53
2023-01-29T11:18:15.849Z,101172.97
2023-01-29T11:20:45.731Z,101178.72
2023-01-29T11:23:33.292Z,101177.06
2023-01-29T11:26:01.335Z,101184.59
2023-01-29T11:28:44.747Z,101173.81
2023-01-29T11:31:30.260Z,101173.25
2023-01-29T11:34:06.965Z,101174.22
2023-01-29T11:36:38.908Z,101173.53
2023-01-29T11:39:08.798Z,101167.25
2023-01-29T11:41:44.152Z,101169.50
2023-01-29T11:44:34.638Z,101158.72
2023-01-29T11:47:20.220Z,101158.00
2023-01-29T11:49:53.888Z,101160.09
2023-01-29T11:52:26.405Z,101154.78
2023-01-29T11:55:01.150Z,101155.34
2023-01-29T11:57:57.353Z,101147.63
2023-01-29T12:00:25.528Z,101144.81
2023-01-29T12:03:02.171Z,101153.84
2023-01-29T12:05:29.338Z,101161.09
2023-01-29T12:08:02.239Z,101151.56
2023-01-29T12:10:39.776Z,101151.41
2023-01-29T12:13:09.706Z,101145.69
2023-01-29T12:15:41.883Z,101150.59
2023-01-29T12:18:33.596Z,101147.94
2023-01-29T12:21:03.712Z,101154.09
2023-01-29T12:23:48.720Z,101154.38
2023-01-29T12:26:36.643Z,101159.13
2023-01-29T12:29:12.261Z,101160.53
2023-01-29T12:32:09.680Z,101139.41
2023-01-29T12:34:45.217Z,101140.25
2023-01-29T12:37:21.467Z,101142.91
2023-01-29T12:39:49.960Z,101130.44
2023-01-29T12:42:25.783Z,101133.66
2023-01-29T12:44:52.645Z,101127.38
2023-01-29T12:47:28.122Z,101120.53
2023-01-29T12:50:00.788Z,101115.78
2023-01-29T12:52:59.866Z,101108.09
2023-01-29T12:55:53.959Z,101111.28
2023-01-29T12:58:31.591Z,101095.34
2023-01-29T13:01:11.774Z,101096.34
2023-01-29T13:03:50.930Z,101101.94
2023-01-29T13:06:29.424Z,101087.78
2023-01-29T13:09:03.895Z,101096.19
2023-01-29T13:11:46.909Z,101093.81
2023-01-29T13:14:22.238Z,101088.50
2023-01-29T13:16:54.195Z,101102.63
2023-01-29T13:19:27.712Z,101090.31
2023-01-29T13:21:57.721Z,101094.75
2023-01-29T13:24:27.657Z,101091.16
2023-01-29T13:26:54.660Z,101093.41
2023-01-29T13:29:25.308Z,101095.75
2023-01-29T13:31:57.225Z,101095.75
2023-01-29T13:34:36.838Z,101099.41
2023-01-29T13:37:11.512Z,101103.19
2023-01-29T13:39:46.380Z,101095.34
2023-01-29T13:42:24.525Z,101099.53
2023-01-29T13:44:57.759Z,101103.75
2023-01-29T13:47:31.359Z,101101.91
2023-01-29T13:50:04.089Z,101099.81
2023-01-29T13:52:44.875Z,101099.97
2023-01-29T13:55:14.597Z,101099.84
2023-01-29T13:57:44.855Z,101094.22
2023-01-29T14:00:32.011Z,101096.19
2023-01-29T14:03:01.932Z,101090.31
2023-01-29T14:05:31.531Z,101087.66
2023-01-29T14:08:02.045Z,101092.38
2023-01-29T14:10:31.196Z,101089.91
2023-01-29T14:13:03.889Z,101086.41
2023-01-29T14:15:36.480Z,101085.28
2023-01-29T14:18:06.517Z,101079.97
2023-01-29T14:20:45.507Z,101088.50
2023-01-29T14:23:44.295Z,101085.25
2023-01-29T14:26:38.407Z,101074.91
2023-01-29T14:29:25.440Z,101077.03
2023-01-29T14:32:00.889Z,101076.63
2023-01-29T14:34:31.952Z,101069.34
2023-01-29T14:37:04.099Z,101074.09
2023-01-29T14:39:43.586Z,101072.56
2023-01-29T14:42:19.587Z,101076.47
2023-01-29T14:44:46.945Z,101069.06
2023-01-29T14:47:20.898Z,101058.44
2023-01-29T14:49:57.716Z,101067.81
2023-01-29T14:52:40.521Z,101066.41
2023-01-29T14:55:15.924Z,101073.13
2023-01-29T14:57:43.337Z,101073.69
2023-01-29T15:00:27.150Z,101065.84
2023-01-29T15:03:02.049Z,101064.88
2023-01-29T15:05:36.173Z,101059.41
2023-01-29T15:08:30.357Z,101057.31
2023-01-29T15:11:19.308Z,101060.13
2023-01-29T15:14:24.056Z,101069.88
2023-01-29T15:16:54.040Z,101057.59
2023-01-29T15:19:32.324Z,101058.56
2023-01-29T15:22:03.032Z,101054.25
2023-01-29T15:24:29.973Z,101060.38
2023-01-29T15:26:57.203Z,101060.81
2023-01-29T15:29:27.584Z,101059.84
2023-01-29T15:31:58.711Z,101055.06
2023-01-29T15:34:26.123Z,101059.94
2023-01-29T15:36:53.190Z,101052.97
2023-01-29T15:39:25.166Z,101057.47
2023-01-29T15:42:10.863Z,101050.03
2023-01-29T15:44:45.323Z,101048.66
2023-01-29T15:47:13.540Z,101049.63
2023-01-29T15:49:41.277Z,101047.94
2023-01-29T15:52:16.241Z,101056.75
2023-01-29T15:54:44.290Z,101054.78
2023-01-29T15:57:21.987Z,101060.09
2023-01-29T15:59:51.955Z,101058.94
2023-01-29T16:02:38.739Z,101060.78
2023-01-29T16:05:16.237Z,101060.91
2023-01-29T16:07:44.659Z,101055.16
2023-01-29T16:10:27.458Z,101063.28
2023-01-29T16:12:55.477Z,101065.41
2023-01-29T16:15:35.011Z,101060.34
2023-01-29T16:18:17.026Z,101060.59
2023-01-29T16:20:50.455Z,101065.88
2023-01-29T16:23:30.815Z,101056.69
2023-01-29T16:26:02.617Z,101062.16
2023-01-29T16:28:30.583Z,101054.75
2023-01-29T16:31:01.915Z,101052.81
2023-01-29T16:33:36.488Z,101058.16
2023-01-29T16:36:11.748Z,101062.03
2023-01-29T16:38:43.334Z,101067.63
2023-01-29T16:41:22.218Z,101061.75
2023-01-29T16:43:50.542Z,101076.97
2023-01-29T16:46:20.648Z,101071.25
2023-01-29T16:48:47.981Z,101077.22
2023-01-29T16:51:22.230Z,101068.03
2023-01-29T16:54:00.923Z,101072.38
2023-01-29T16:56:31.398Z,101066.22
2023-01-29T16:58:58.980Z,101065.97
2023-01-29T17:01:29.014Z,101068.34
2023-01-29T17:04:17.421Z,101067.06
2023-01-29T17:06:54.448Z,101069.97
2023-01-29T17:09:41.168Z,101055.50
2023-01-29T17:12:15.431Z,101062.97
2023-01-29T17:14:56.849Z,101066.88
2023-01-29T17:17:30.551Z,101056.72
2023-01-29T17:19:59.561Z,101053.66
2023-01-29T17:22:26.424Z,101064.97
2023-01-29T17:24:53.329Z,101071.53
2023-01-29T17:27:22.733Z,101067.19
2023-01-29T17:29:51.136Z,101069.41
2023-01-29T17:32:19.039Z,101072.59
2023-01-29T17:34:47.159Z,101069.56
2023-01-29T17:37:15.633Z,101072.63
2023-01-29T17:39:44.123Z,101075.22
2023-01-29T17:42:14.667Z,101082.72
2023-01-29T17:44:43.109Z,101077.69
2023-01-29T17:47:15.275Z,101072.56
2023-01-29T17:49:43.321Z,101081.63
2023-01-29T17:52:10.327Z,101076.31
2023-01-29T17:54:37.359Z,101082.59
2023-01-29T17:57:04.503Z,101074.22
2023-01-29T17:59:33.750Z,101070.88
2023-01-29T18:02:00.922Z,101069.31
2023-01-29T18:04:28.190Z,101063.06
2023-01-29T18:06:57.121Z,101061.66
2023-01-29T18:09:24.814Z,101058.41
2023-01-29T18:11:51.971Z,101062.31
2023-01-29T18:14:18.906Z,101057.13
2023-01-29T18:16:46.583Z,101052.00
2023-01-29T18:19:22.326Z,101049.75
2023-01-29T18:21:50.434Z,101050.53
2023-01-29T18:24:17.293Z,101057.38
2023-01-29T18:26:44.237Z,101058.22
2023-01-29T18:29:11.253Z,101055.34
2023-01-29T18:31:38.230Z,101062.72
2023-01-29T18:34:05.439Z,101060.78
2023-01-29T18:36:32.440Z,101065.75
2023-01-29T18:38:59.373Z,101069.81
2023-01-29T18:41:26.453Z,101062.16
2023-01-29T18:43:53.501Z,101062.63
2023-01-29T18:46:22.875Z,101052.53
2023-01-29T18:48:51.137Z,101054.63
2023-01-29T18:51:20.757Z,101058.00
2023-01-29T18:53:53.283Z,101053.06
2023-01-29T18:56:20.617Z,101055.16
2023-01-29T18:58:57.925Z,101057.66
2023-01-29T19:01:32.942Z,101055.88
2023-01-29T19:04:01.278Z,101060.00
2023-01-29T19:06:28.395Z,101049.03
2023-01-29T19:08:55.348Z,101061.13
2023-01-29T19:11:22.326Z,101056.53
2023-01-29T19:13:52.860Z,101064.41
2023-01-29T19:16:19.806Z,101060.84
2023-01-29T19:18:46.681Z,101053.03
2023-01-29T19:21:16.108Z,101051.41
2023-01-29T19:23:45.010Z,101057.81
2023-01-29T19:26:12.229Z,101055.72
2023-01-29T19:28:39.688Z,101056.69
2023-01-29T19:31:06.892Z,101062.66
2023-01-29T19:33:33.907Z,101053.75
2023-01-29T19:36:01.043Z,101059.47
2023-01-29T19:38:28.675Z,101057.69
2023-01-29T19:40:55.645Z,101064.53
2023-01-29T19:43:22.838Z,101065.78
2023-01-29T19:45:51.180Z,101070.97
2023-01-29T19:48:22.162Z,101067.59
2023-01-29T19:51:13.732Z,101073.25
2023-01-29T19:53:46.126Z,101070.66
2023-01-29T19:56:16.215Z,101075.53
2023-01-29T19:58:43.676Z,101081.53
2023-01-29T20:01:21.807Z,101073.47
2023-01-29T20:03:49.846Z,101060.91
2023-01-29T20:06:19.393Z,101073.59
2023-01-29T20:08:46.923Z,101065.50
2023-01-29T20:11:15.102Z,101061.06
2023-01-29T20:13:43.468Z,101058.25
2023-01-29T20:16:10.754Z,101055.78
2023-01-29T20:18:38.093Z,101055.03
2023-01-29T20:21:11.781Z,101055.81
2023-01-29T20:23:40.125Z,101058.75
2023-01-29T20:26:14.287Z,101055.00
2023-01-29T20:28:42.273Z,101053.72
2023-01-29T20:31:10.029Z,101054.59
2023-01-29T20:33:40.589Z,101047.88
2023-01-29T20:36:10.205Z,101057.13
2023-01-29T20:38:37.469Z,101053.47
2023-01-29T20:41:10.671Z,101052.34
2023-01-29T20:43:37.956Z,101050.69
2023-01-29T20:46:05.657Z,101045.22
2023-01-29T20:48:33.425Z,101063.06
2023-01-29T20:51:16.055Z,101058.59
2023-01-29T20:53:46.262Z,101053.56
2023-01-29T20:56:15.511Z,101051.41
2023-01-29T20:58:44.332Z,101048.06
2023-01-29T21:01:13.561Z,101045.38
2023-01-29T21:03:40.630Z,101037.56
2023-01-29T21:06:09.414Z,101051.09
2023-01-29T21:08:37.595Z,101052.06
2023-01-29T21:11:06.229Z,101053.53
2023-01-29T21:13:33.575Z,101053.13
2023-01-29T21:16:00.757Z,101051.44
2023-01-29T21:18:27.704Z,101050.28
2023-01-29T21:20:55.176Z,101041.72
2023-01-29T21:23:22.659Z,101048.75
2023-01-29T21:25:49.525Z,101043.97
2023-01-29T21:28:16.917Z,101044.44
2023-01-29T21:30:43.966Z,101048.50
2023-01-29T21:33:10.865Z,101042.47
2023-01-29T21:35:38.616Z,101025.75
2023-01-29T21:38:05.569Z,101023.66
2023-01-29T21:40:32.396Z,101028.25
2023-01-29T21:43:15.638Z,101029.75
2023-01-29T21:45:43.549Z,101022.63
2023-01-29T21:48:11.616Z,101012.53
2023-01-29T21:50:39.048Z,101013.47
2023-01-29T21:53:05.954Z,101012.19
2023-01-29T21:55:33.081Z,101003.38
2023-01-29T21:58:00.588Z,101006.69
2023-01-29T22:00:28.121Z,100996.69
2023-01-29T22:02:55.834Z,100990.66
2023-01-29T22:05:22.993Z,100990.84
2023-01-29T22:07:50.325Z,100989.47
2023-01-29T22:10:19.021Z,100988.50
2023-01-29T22:12:46.946Z,100987.22
2023-01-29T22:15:15.221Z,100990.63
2023-01-29T22:17:42.870Z,100984.66
2023-01-29T22:20:12.081Z,100974.63
2023-01-29T22:22:39.139Z,100963.00
2023-01-29T22:25:06.599Z,100967.97
2023-01-29T22:27:34.096Z,100970.75
2023-01-29T22:30:00.997Z,100964.28
2023-01-29T22:32:28.111Z,100957.59
2023-01-29T22:34:54.949Z,100946.84
2023-01-29T22:37:22.027Z,100957.84
2023-01-29T22:39:48.987Z,100958.91
2023-01-29T22:42:18.399Z,100947.56
2023-01-29T22:44:48.562Z,100950.00
2023-01-29T22:47:16.176Z,100945.72
2023-01-29T22:49:45.721Z,100947.13
2023-01-29T22:52:12.811Z,100945.41
2023-01-29T22:54:41.367Z,100947.69
2023-01-29T22:57:11.171Z,100945.03
2023-01-29T22:59:42.375Z,100945.44
2023-01-29T23:02:11.599Z,100946.91
2023-01-29T23:04:38.630Z,100940.34
2023-01-29T23:07:09.133Z,100944.00
2023-01-29T23:09:36.230Z,100938.53
2023-01-29T23:12:03.137Z,100938.09
2023-01-29T23:14:30.122Z,100940.97
2023-01-29T23:16:57.067Z,100935.34
2023-01-29T23:19:24.172Z,100935.09
2023-01-29T23:21:51.206Z,100935.72
2023-01-29T23:24:18.120Z,100928.19
2023-01-29T23:27:03.826Z,100924.94
2023-01-29T23:29:30.753Z,100921.50
2023-01-29T23:31:57.575Z,100918.84
2023-01-29T23:34:24.579Z,100923.75
2023-01-29T23:36:51.468Z,100928.31
2023-01-29T23:39:18.459Z,100928.53
2023-01-29T23:41:45.312Z,100924.13
2023-01-29T23:44:12.722Z,100919.56
2023-01-29T23:46:40.084Z,100924.19
2023-01-29T23:49:07.370Z,100919.03
2023-01-29T23:51:34.612Z,100916.31
2023-01-29T23:54:01.510Z,100914.59
2023-01-29T23:56:29.520Z,100917.53
2023-01-29T23:58:57.757Z,100914.38
